createdAt,value
2022-10-09T00:00:24.690Z,97956.63
2022-10-09T00:02:51.597Z,97961.06
2022-10-09T00:05:18.544Z,97953.56
2022-10-09T00:07:45.038Z,97956.41
2022-10-09T00:10:11.510Z,97959.88
2022-10-09T00:12:38.014Z,97955.97
2022-10-09T00:15:04.770Z,97960.41
2022-10-09T00:17:31.237Z,97957.59
2022-10-09T00:19:57.735Z,97951.25
2022-10-09T00:22:24.376Z,97953.09
2022-10-09T00:24:50.980Z,97950.19
2022-10-09T00:27:17.465Z,97950.56
2022-10-09T00:29:43.995Z,97955.81
2022-10-09T00:32:10.447Z,97946.75
2022-10-09T00:34:36.915Z,97938.56
2022-10-09T00:37:03.386Z,97948.88
2022-10-09T00:39:29.861Z,97954.34
2022-10-09T00:41:56.483Z,97953.28
2022-10-09T00:44:54.137Z,97954.94
2022-10-09T00:47:40.046Z,97946.91
2022-10-09T00:50:24.554Z,97957.31
2022-10-09T00:52:54.413Z,97957.19
2022-10-09T00:55:22.912Z,97954.97
2022-10-09T00:57:50.647Z,97948.16
2022-10-09T01:00:17.384Z,97942.00
2022-10-09T01:02:43.906Z,97947.78
2022-10-09T01:05:11.225Z,97942.19
2022-10-09T01:07:43.700Z,97938.09
2022-10-09T01:10:42.974Z,97936.03
2022-10-09T01:13:24.271Z,97939.78
2022-10-09T01:15:53.694Z,97934.28
2022-10-09T01:18:20.130Z,97940.44
2022-10-09T01:20:54.348Z,97940.88
2022-10-09T01:23:54.888Z,97937.53
2022-10-09T01:26:40.216Z,97934.84
2022-10-09T01:29:09.953Z,97924.59
2022-10-09T01:31:41.127Z,97922.56
2022-10-09T01:34:08.910Z,97927.38
2022-10-09T01:36:37.054Z,97927.44
2022-10-09T01:39:06.689Z,97923.56
2022-10-09T01:41:33.499Z,97921.38
2022-10-09T01:43:59.990Z,97917.75
2022-10-09T01:46:33.534Z,97921.72
2022-10-09T01:49:13.592Z,97922.75
2022-10-09T01:51:51.590Z,97915.84
2022-10-09T01:54:28.465Z,97911.59
2022-10-09T01:56:56.715Z,97906.53
2022-10-09T01:59:26.429Z,97924.66
2022-10-09T02:01:54.232Z,97915.28
2022-10-09T02:04:22.183Z,97916.66
2022-10-09T02:06:48.799Z,97911.63
2022-10-09T02:09:17.819Z,97915.16
2022-10-09T02:11:49.426Z,97906.94
2022-10-09T02:14:16.077Z,97919.16
2022-10-09T02:16:46.809Z,97911.41
2022-10-09T02:19:31.991Z,97913.50
2022-10-09T02:22:09.696Z,97902.28
2022-10-09T02:24:39.487Z,97902.06
2022-10-09T02:27:07.572Z,97903.47
2022-10-09T02:29:34.448Z,97904.53
2022-10-09T02:32:00.970Z,97905.06
2022-10-09T02:34:27.470Z,97898.66
2022-10-09T02:36:53.972Z,97899.00
2022-10-09T02:39:20.484Z,97897.38
2022-10-09T02:41:46.967Z,97895.06
2022-10-09T02:44:13.513Z,97890.94
2022-10-09T02:46:40.170Z,97891.91
2022-10-09T02:49:07.368Z,97893.34
2022-10-09T02:51:33.998Z,97893.56
2022-10-09T02:54:00.516Z,97901.13
2022-10-09T02:56:27.612Z,97894.44
2022-10-09T02:58:54.666Z,97894.72
2022-10-09T03:01:21.761Z,97898.66
2022-10-09T03:03:48.523Z,97898.06
2022-10-09T03:06:21.300Z,97897.63
2022-10-09T03:08:49.471Z,97894.78
2022-10-09T03:11:18.162Z,97900.03
2022-10-09T03:13:45.007Z,97898.41
2022-10-09T03:16:14.789Z,97898.31
2022-10-09T03:18:41.694Z,97892.13
2022-10-09T03:21:14.322Z,97892.00
2022-10-09T03:23:42.623Z,97891.38
2022-10-09T03:26:12.962Z,97891.56
2022-10-09T03:28:42.190Z,97891.72
2022-10-09T03:31:15.534Z,97889.84
2022-10-09T03:33:49.014Z,97888.53
2022-10-09T03:36:15.527Z,97889.25
2022-10-09T03:38:41.997Z,97881.06
2022-10-09T03:41:08.705Z,97886.94
2022-10-09T03:43:35.742Z,97887.03
2022-10-09T03:46:09.066Z,97883.63
2022-10-09T03:48:36.605Z,97882.94
2022-10-09T03:51:03.389Z,97890.59
2022-10-09T03:53:30.127Z,97883.56
2022-10-09T03:55:56.845Z,97888.38
2022-10-09T03:58:23.780Z,97892.50
2022-10-09T04:00:51.944Z,97890.19
2022-10-09T04:03:19.314Z,97886.97
2022-10-09T04:05:45.955Z,97889.81
2022-10-09T04:08:12.463Z,97890.59
2022-10-09T04:10:38.970Z,97885.97
2022-10-09T04:13:05.481Z,97890.16
2022-10-09T04:15:32.027Z,97883.97
2022-10-09T04:17:58.528Z,97890.41
2022-10-09T04:20:25.125Z,97884.94
2022-10-09T04:22:51.814Z,97885.81
2022-10-09T04:25:18.503Z,97883.66
2022-10-09T04:27:44.985Z,97878.69
2022-10-09T04:30:11.913Z,97881.44
2022-10-09T04:32:38.482Z,97880.09
2022-10-09T04:35:05.558Z,97880.91
2022-10-09T04:37:32.149Z,97884.38
2022-10-09T04:39:58.690Z,97880.97
2022-10-09T04:42:25.165Z,97876.84
2022-10-09T04:44:51.606Z,97879.97
2022-10-09T04:47:18.241Z,97886.44
2022-10-09T04:49:44.844Z,97875.94
2022-10-09T04:52:11.407Z,97877.59
2022-10-09T04:54:37.877Z,97878.38
2022-10-09T04:57:04.422Z,97877.75
2022-10-09T04:59:30.940Z,97872.84
2022-10-09T05:01:57.501Z,97874.25
2022-10-09T05:04:24.060Z,97878.84
2022-10-09T05:06:50.570Z,97873.78
2022-10-09T05:09:17.194Z,97875.31
2022-10-09T05:11:43.751Z,97879.59
2022-10-09T05:14:10.538Z,97875.19
2022-10-09T05:17:00.894Z,97877.72
2022-10-09T05:19:23.557Z,97874.72
2022-10-09T05:21:50.018Z,97868.34
2022-10-09T05:24:16.579Z,97878.19
2022-10-09T05:26:43.100Z,97870.81
2022-10-09T05:29:09.592Z,97877.69
2022-10-09T05:31:37.565Z,97872.91
2022-10-09T05:34:04.622Z,97881.03
2022-10-09T05:36:31.359Z,97876.19
2022-10-09T05:38:58.172Z,97884.34
2022-10-09T05:41:24.680Z,97881.44
2022-10-09T05:43:51.134Z,97877.59
2022-10-09T05:46:20.380Z,97876.78
2022-10-09T05:49:07.212Z,97874.63
2022-10-09T05:51:36.969Z,97880.69
2022-10-09T05:54:04.857Z,97879.09
2022-10-09T05:56:33.998Z,97867.91
2022-10-09T05:59:02.947Z,97868.88
2022-10-09T06:01:38.095Z,97871.31
2022-10-09T06:04:05.727Z,97878.88
2022-10-09T06:06:37.286Z,97879.72
2022-10-09T06:09:04.220Z,97878.88
2022-10-09T06:11:34.045Z,97878.72
2022-10-09T06:14:03.807Z,97879.41
2022-10-09T06:16:44.382Z,97886.19
2022-10-09T06:19:15.873Z,97881.06
2022-10-09T06:21:44.001Z,97879.66
2022-10-09T06:24:21.375Z,97887.91
2022-10-09T06:26:50.945Z,97894.72
2022-10-09T06:29:17.517Z,97894.59
2022-10-09T06:31:43.997Z,97897.34
2022-10-09T06:34:11.123Z,97892.72
2022-10-09T06:36:37.751Z,97892.78
2022-10-09T06:39:07.095Z,97893.19
2022-10-09T06:41:34.810Z,97892.97
2022-10-09T06:44:07.585Z,97897.63
2022-10-09T06:46:41.496Z,97895.91
2022-10-09T06:49:09.945Z,97892.72
2022-10-09T06:51:37.503Z,97896.97
2022-10-09T06:54:10.074Z,97904.94
2022-10-09T06:56:36.560Z,97900.25
2022-10-09T06:59:05.130Z,97896.22
2022-10-09T07:01:32.624Z,97899.81
2022-10-09T07:04:07.000Z,97909.75
2022-10-09T07:06:38.540Z,97903.56
2022-10-09T07:09:07.963Z,97898.66
2022-10-09T07:11:37.013Z,97898.56
2022-10-09T07:14:06.229Z,97900.28
2022-10-09T07:16:36.027Z,97896.63
2022-10-09T07:19:07.360Z,97896.00
2022-10-09T07:21:35.264Z,97888.16
2022-10-09T07:24:02.800Z,97891.16
2022-10-09T07:26:30.779Z,97890.59
2022-10-09T07:28:57.759Z,97895.78
2022-10-09T07:31:24.384Z,97889.63
2022-10-09T07:33:52.785Z,97890.03
2022-10-09T07:36:19.851Z,97879.78
2022-10-09T07:38:51.801Z,97888.44
2022-10-09T07:41:19.030Z,97892.38
2022-10-09T07:43:45.824Z,97885.75
2022-10-09T07:46:15.458Z,97889.63
2022-10-09T07:48:42.326Z,97868.75
2022-10-09T07:51:12.133Z,97873.09
2022-10-09T07:53:38.676Z,97881.63
2022-10-09T07:56:06.514Z,97886.88
2022-10-09T07:58:33.152Z,97886.34
2022-10-09T08:01:07.602Z,97872.94
2022-10-09T08:03:35.129Z,97875.63
2022-10-09T08:06:01.629Z,97884.47
2022-10-09T08:08:28.574Z,97886.66
2022-10-09T08:10:55.096Z,97884.28
2022-10-09T08:13:21.590Z,97877.38
2022-10-09T08:15:48.295Z,97876.44
2022-10-09T08:18:15.494Z,97878.66
2022-10-09T08:20:42.085Z,97868.72
2022-10-09T08:23:08.591Z,97867.75
2022-10-09T08:25:38.303Z,97860.59
2022-10-09T08:28:04.991Z,97858.53
2022-10-09T08:30:31.591Z,97866.03
2022-10-09T08:32:58.033Z,97857.09
2022-10-09T08:35:24.577Z,97858.59
2022-10-09T08:37:51.148Z,97858.56
2022-10-09T08:40:33.754Z,97855.78
2022-10-09T08:43:05.860Z,97862.25
2022-10-09T08:45:35.080Z,97862.41
2022-10-09T08:48:08.677Z,97875.72
2022-10-09T08:50:39.491Z,97867.34
2022-10-09T08:53:17.280Z,97855.94
2022-10-09T08:55:49.088Z,97860.25
2022-10-09T08:58:18.832Z,97865.84
2022-10-09T09:01:00.050Z,97854.06
2022-10-09T09:03:41.517Z,97859.78
2022-10-09T09:06:14.948Z,97859.78
2022-10-09T09:08:53.828Z,97855.81
2022-10-09T09:11:38.411Z,97870.78
2022-10-09T09:14:08.446Z,97862.69
2022-10-09T09:16:57.965Z,97861.50
2022-10-09T09:19:56.701Z,97856.50
2022-10-09T09:22:24.683Z,97847.84
2022-10-09T09:24:53.950Z,97841.47
2022-10-09T09:27:26.170Z,97842.38
2022-10-09T09:29:58.592Z,97837.41
2022-10-09T09:32:27.973Z,97835.59
2022-10-09T09:35:06.619Z,97825.41
2022-10-09T09:37:33.173Z,97826.13
2022-10-09T09:42:47.352Z,97820.94
2022-10-09T09:45:21.006Z,97822.81
2022-10-09T09:48:03.484Z,97824.50
2022-10-09T09:50:48.484Z,97819.19
2022-10-09T09:53:30.351Z,97809.84
2022-10-09T09:55:58.076Z,97806.94
2022-10-09T09:58:32.637Z,97807.09
2022-10-09T10:01:01.958Z,97808.94
2022-10-09T10:03:29.366Z,97801.34
2022-10-09T10:05:56.255Z,97800.75
2022-10-09T10:08:29.661Z,97804.22
2022-10-09T10:10:58.734Z,97795.50
2022-10-09T10:13:52.037Z,97797.28
2022-10-09T10:16:29.459Z,97799.59
2022-10-09T10:18:58.160Z,97792.19
2022-10-09T10:21:24.718Z,97799.97
2022-10-09T10:23:59.423Z,97796.41
2022-10-09T10:26:41.868Z,97793.03
2022-10-09T10:29:31.689Z,97789.97
2022-10-09T10:32:20.090Z,97783.47
2022-10-09T10:34:53.025Z,97783.38
2022-10-09T10:37:29.034Z,97781.31
2022-10-09T10:40:03.059Z,97779.25
2022-10-09T10:42:54.047Z,97772.13
2022-10-09T10:45:34.353Z,97771.31
2022-10-09T10:48:03.542Z,97762.78
2022-10-09T10:50:37.293Z,97760.94
2022-10-09T10:53:20.124Z,97762.00
2022-10-09T10:56:04.907Z,97745.38
2022-10-09T10:58:49.938Z,97753.13
2022-10-09T11:01:41.396Z,97751.25
2022-10-09T11:04:41.280Z,97740.38
2022-10-09T11:07:14.200Z,97745.00
2022-10-09T11:09:55.321Z,97738.28
2022-10-09T11:12:46.702Z,97736.44
2022-10-09T11:15:25.826Z,97734.97
2022-10-09T11:18:22.759Z,97726.72
2022-10-09T11:21:04.444Z,97730.28
2022-10-09T11:24:06.126Z,97730.28
2022-10-09T11:26:42.059Z,97732.94
2022-10-09T11:29:23.778Z,97727.34
2022-10-09T11:31:57.735Z,97725.91
2022-10-09T11:34:33.813Z,97719.78
2022-10-09T11:37:02.043Z,97716.00
2022-10-09T11:39:33.357Z,97706.69
2022-10-09T11:42:00.629Z,97710.78
2022-10-09T11:44:32.997Z,97709.78
2022-10-09T11:47:11.079Z,97700.06
2022-10-09T11:49:59.980Z,97700.44
2022-10-09T11:53:03.756Z,97693.44
2022-10-09T11:55:32.602Z,97693.31
2022-10-09T11:58:18.698Z,97693.81
2022-10-09T12:00:47.894Z,97678.84
2022-10-09T12:03:30.132Z,97679.97
2022-10-09T12:06:09.420Z,97668.81
2022-10-09T12:08:37.565Z,97672.63
2022-10-09T12:11:16.878Z,97677.16
2022-10-09T12:13:51.603Z,97666.44
2022-10-09T12:16:44.625Z,97659.63
2022-10-09T12:19:20.041Z,97649.47
2022-10-09T12:22:00.666Z,97648.66
2022-10-09T12:24:33.384Z,97647.22
2022-10-09T12:27:03.283Z,97649.50
2022-10-09T12:29:39.921Z,97643.16
2022-10-09T12:32:15.518Z,97643.16
2022-10-09T12:34:51.107Z,97636.19
2022-10-09T12:37:20.615Z,97634.88
2022-10-09T12:39:48.329Z,97635.66
2022-10-09T12:42:22.430Z,97628.38
2022-10-09T12:44:51.020Z,97625.91
2022-10-09T12:47:22.887Z,97628.63
2022-10-09T12:50:13.187Z,97624.38
2022-10-09T12:52:57.961Z,97623.78
2022-10-09T12:55:31.523Z,97619.22
2022-10-09T12:58:14.985Z,97621.09
2022-10-09T13:00:42.272Z,97619.69
2022-10-09T13:03:38.241Z,97607.19
2022-10-09T13:06:18.249Z,97607.44
2022-10-09T13:08:45.846Z,97614.84
2022-10-09T13:11:34.670Z,97610.16
2022-10-09T13:14:01.944Z,97603.16
2022-10-09T13:16:42.260Z,97613.34
2022-10-09T13:19:29.370Z,97599.84
2022-10-09T13:22:05.854Z,97598.50
2022-10-09T13:24:32.784Z,97595.84
2022-10-09T13:26:59.274Z,97586.56
2022-10-09T13:29:25.766Z,97588.13
2022-10-09T13:31:52.281Z,97586.25
2022-10-09T13:34:19.382Z,97574.97
2022-10-09T13:36:45.976Z,97583.78
2022-10-09T13:39:14.695Z,97579.75
2022-10-09T13:41:43.362Z,97579.91
2022-10-09T13:44:10.229Z,97572.25
2022-10-09T13:46:36.766Z,97565.66
2022-10-09T13:49:03.330Z,97573.56
2022-10-09T13:51:31.916Z,97559.53
2022-10-09T13:53:58.519Z,97560.44
2022-10-09T13:56:26.162Z,97561.22
2022-10-09T13:58:52.823Z,97551.72
2022-10-09T14:01:19.505Z,97561.41
2022-10-09T14:03:46.011Z,97548.97
2022-10-09T14:06:12.586Z,97553.69
2022-10-09T14:08:39.209Z,97546.75
2022-10-09T14:11:05.994Z,97549.97
2022-10-09T14:13:32.505Z,97545.41
2022-10-09T14:15:58.967Z,97534.88
2022-10-09T14:18:26.026Z,97528.41
2022-10-09T14:20:52.492Z,97531.22
2022-10-09T14:23:19.017Z,97530.19
2022-10-09T14:25:45.481Z,97529.06
2022-10-09T14:28:12.046Z,97530.47
2022-10-09T14:30:43.176Z,97521.13
2022-10-09T14:33:10.255Z,97520.97
2022-10-09T14:35:36.766Z,97518.31
2022-10-09T14:38:03.273Z,97527.03
2022-10-09T14:40:29.743Z,97513.09
2022-10-09T14:42:56.251Z,97514.44
2022-10-09T14:45:22.766Z,97505.13
2022-10-09T14:47:49.356Z,97503.22
2022-10-09T14:50:15.866Z,97497.09
2022-10-09T14:52:42.405Z,97496.75
2022-10-09T14:55:09.139Z,97497.25
2022-10-09T14:57:35.943Z,97497.59
2022-10-09T15:00:04.675Z,97500.03
2022-10-09T15:02:31.348Z,97486.63
2022-10-09T15:04:57.892Z,97493.88
2022-10-09T15:07:28.200Z,97489.56
2022-10-09T15:09:56.870Z,97495.56
2022-10-09T15:12:23.722Z,97493.56
2022-10-09T15:14:50.182Z,97489.94
2022-10-09T15:17:16.666Z,97485.88
2022-10-09T15:19:43.121Z,97484.91
2022-10-09T15:22:09.681Z,97477.47
2022-10-09T15:24:36.140Z,97477.34
2022-10-09T15:27:02.686Z,97483.00
2022-10-09T15:29:29.205Z,97483.38
2022-10-09T15:31:55.767Z,97480.94
2022-10-09T15:34:22.297Z,97479.00
2022-10-09T15:36:48.961Z,97470.22
2022-10-09T15:39:15.972Z,97473.59
2022-10-09T15:41:43.204Z,97465.41
2022-10-09T15:44:20.337Z,97467.72
2022-10-09T15:46:48.134Z,97458.97
2022-10-09T15:49:14.940Z,97463.44
2022-10-09T15:51:42.859Z,97455.47
2022-10-09T15:54:11.298Z,97456.16
2022-10-09T15:56:40.184Z,97453.44
2022-10-09T15:59:07.417Z,97455.22
2022-10-09T16:01:34.198Z,97458.94
2022-10-09T16:04:00.757Z,97440.47
2022-10-09T16:06:27.265Z,97448.06
2022-10-09T16:08:58.264Z,97448.16
2022-10-09T16:11:26.848Z,97449.44
2022-10-09T16:13:54.697Z,97448.34
2022-10-09T16:16:24.212Z,97444.59
2022-10-09T16:18:51.800Z,97450.09
2022-10-09T16:21:21.763Z,97444.25
2022-10-09T16:23:48.740Z,97441.44
2022-10-09T16:26:18.398Z,97435.78
2022-10-09T16:28:46.546Z,97445.19
2022-10-09T16:31:24.683Z,97445.94
2022-10-09T16:33:51.680Z,97444.81
2022-10-09T16:36:18.254Z,97441.72
2022-10-09T16:38:45.005Z,97440.56
2022-10-09T16:41:22.270Z,97443.34
2022-10-09T16:43:52.101Z,97443.59
2022-10-09T16:46:20.147Z,97440.84
2022-10-09T16:48:50.708Z,97443.16
2022-10-09T16:51:26.177Z,97442.19
2022-10-09T16:54:17.574Z,97437.53
2022-10-09T16:56:44.203Z,97447.28
2022-10-09T16:59:14.746Z,97449.19
2022-10-09T17:02:04.803Z,97449.19
2022-10-09T17:04:57.277Z,97450.28
2022-10-09T17:07:24.748Z,97451.53
2022-10-09T17:09:56.741Z,97440.78
2022-10-09T17:12:25.942Z,97451.13
2022-10-09T17:14:54.861Z,97448.81
2022-10-09T17:17:22.179Z,97448.59
2022-10-09T17:23:07.707Z,97437.72
2022-10-09T17:26:53.373Z,97434.34
2022-10-09T17:40:01.419Z,97438.66
2022-10-09T17:42:27.888Z,97434.47
2022-10-09T17:44:54.356Z,97436.59
2022-10-09T17:47:20.870Z,97432.91
2022-10-09T17:49:47.393Z,97429.78
2022-10-09T17:52:13.946Z,97429.47
2022-10-09T17:54:40.426Z,97429.94
2022-10-09T17:57:12.439Z,97423.19
2022-10-09T17:59:39.438Z,97424.72
2022-10-09T18:02:06.177Z,97419.75
2022-10-09T18:04:32.770Z,97423.13
2022-10-09T18:13:03.895Z,97415.09
2022-10-09T18:16:25.615Z,97416.66
2022-10-09T18:22:04.607Z,97419.97
2022-10-09T18:24:37.100Z,97415.34
2022-10-09T18:27:03.891Z,97422.16
2022-10-09T18:29:30.501Z,97414.03
2022-10-09T18:31:57.049Z,97410.03
2022-10-09T18:34:23.729Z,97410.03
2022-10-09T18:36:51.881Z,97408.88
2022-10-09T18:39:19.203Z,97408.25
2022-10-09T18:41:45.666Z,97406.28
2022-10-09T18:44:17.688Z,97397.06
2022-10-09T18:46:58.995Z,97402.44
2022-10-09T18:49:30.006Z,97398.00
2022-10-09T18:51:58.609Z,97391.44
2022-10-09T18:54:27.273Z,97393.25
2022-10-09T18:56:54.001Z,97391.56
2022-10-09T18:59:22.187Z,97389.59
2022-10-09T19:01:49.261Z,97387.19
2022-10-09T19:04:15.850Z,97383.78
2022-10-09T19:06:42.408Z,97391.22
2022-10-09T19:09:08.937Z,97388.88
2022-10-09T19:11:35.480Z,97384.56
2022-10-09T19:14:02.025Z,97380.72
2022-10-09T19:16:30.309Z,97389.38
2022-10-09T19:18:57.048Z,97389.50
2022-10-09T19:21:24.223Z,97391.00
2022-10-09T19:23:52.703Z,97390.78
2022-10-09T19:26:20.447Z,97392.88
2022-10-09T19:28:47.178Z,97394.44
2022-10-09T19:31:14.521Z,97389.25
2022-10-09T19:33:42.641Z,97388.88
2022-10-09T19:36:14.240Z,97378.03
2022-10-09T19:38:41.352Z,97383.38
2022-10-09T19:41:13.823Z,97376.09
2022-10-09T19:43:40.831Z,97376.78
2022-10-09T19:46:14.029Z,97373.31
2022-10-09T19:48:40.750Z,97377.72
2022-10-09T19:51:09.167Z,97368.41
2022-10-09T19:53:35.936Z,97371.56
2022-10-09T19:56:03.019Z,97370.47
2022-10-09T19:58:30.183Z,97362.28
2022-10-09T20:00:56.746Z,97372.09
2022-10-09T20:03:23.239Z,97373.97
2022-10-09T20:05:49.715Z,97365.44
2022-10-09T20:08:16.198Z,97365.56
2022-10-09T20:10:42.678Z,97368.56
2022-10-09T20:13:09.158Z,97362.28
2022-10-09T20:15:35.694Z,97356.06
2022-10-09T20:18:02.232Z,97353.56
2022-10-09T20:20:28.770Z,97360.13
2022-10-09T20:22:55.279Z,97362.56
2022-10-09T20:25:21.855Z,97355.91
2022-10-09T20:27:48.491Z,97362.31
2022-10-09T20:30:15.202Z,97360.38
2022-10-09T20:32:41.677Z,97354.78
2022-10-09T20:35:08.544Z,97355.38
2022-10-09T20:37:35.251Z,97354.97
2022-10-09T20:40:02.134Z,97359.09
2022-10-09T20:42:28.618Z,97351.13
2022-10-09T20:44:55.064Z,97346.28
2022-10-09T20:47:21.576Z,97343.56
2022-10-09T20:49:48.362Z,97346.78
2022-10-09T20:52:17.835Z,97337.47
2022-10-09T20:54:44.305Z,97339.44
2022-10-09T20:57:10.806Z,97344.38
2022-10-09T20:59:37.266Z,97335.06
2022-10-09T21:02:03.869Z,97342.44
2022-10-09T21:04:31.489Z,97339.16
2022-10-09T21:06:58.153Z,97345.66
2022-10-09T21:09:28.488Z,97341.53
2022-10-09T21:11:57.451Z,97346.59
2022-10-09T21:14:23.941Z,97345.09
2022-10-09T21:16:50.471Z,97351.72
2022-10-09T21:19:17.407Z,97346.53
2022-10-09T21:21:47.472Z,97333.41
2022-10-09T21:24:17.331Z,97339.50
2022-10-09T21:26:47.356Z,97339.09
2022-10-09T21:29:14.667Z,97342.56
2022-10-09T21:31:42.124Z,97329.63
2022-10-09T21:34:08.633Z,97347.81
2022-10-09T21:36:51.161Z,97338.75
2022-10-09T21:39:26.480Z,97343.56
2022-10-09T21:41:53.023Z,97336.44
2022-10-09T21:44:19.489Z,97341.09
2022-10-09T21:46:46.157Z,97340.44
2022-10-09T21:49:24.144Z,97336.94
2022-10-09T21:51:51.381Z,97340.47
2022-10-09T21:54:17.970Z,97338.72
2022-10-09T21:56:44.509Z,97343.56
2022-10-09T21:59:10.998Z,97337.50
2022-10-09T22:01:37.674Z,97337.59
2022-10-09T22:04:04.446Z,97336.72
2022-10-09T22:06:30.927Z,97333.56
2022-10-09T22:08:58.942Z,97333.44
2022-10-09T22:11:25.699Z,97333.75
2022-10-09T22:13:52.495Z,97343.88
2022-10-09T22:16:18.947Z,97334.16
2022-10-09T22:18:45.772Z,97341.00
2022-10-09T22:21:15.048Z,97334.06
2022-10-09T22:23:42.386Z,97331.84
2022-10-09T22:26:12.512Z,97328.78
2022-10-09T22:28:39.052Z,97333.41
2022-10-09T22:31:31.723Z,97339.03
2022-10-09T22:34:01.687Z,97332.41
2022-10-09T22:36:31.463Z,97322.44
2022-10-09T22:38:59.625Z,97322.44
2022-10-09T22:41:27.855Z,97316.97
2022-10-09T22:43:56.350Z,97312.19
2022-10-09T22:46:30.859Z,97319.59
2022-10-09T22:48:58.161Z,97316.28
2022-10-09T22:51:27.269Z,97310.44
2022-10-09T22:53:55.475Z,97322.84
2022-10-09T22:56:28.056Z,97313.31
2022-10-09T22:58:54.522Z,97314.84
2022-10-09T23:01:34.841Z,97308.69
2022-10-09T23:04:06.574Z,97301.00
2022-10-09T23:06:33.362Z,97303.50
2022-10-09T23:09:00.309Z,97306.72
2022-10-09T23:11:27.532Z,97309.56
2022-10-09T23:13:55.779Z,97301.97
2022-10-09T23:16:23.830Z,97309.84
2022-10-09T23:18:50.617Z,97302.91
2022-10-09T23:21:21.068Z,97299.16
2022-10-09T23:23:48.633Z,97289.47
2022-10-09T23:26:18.097Z,97289.88
2022-10-09T23:28:49.439Z,97294.50
2022-10-09T23:31:15.898Z,97293.31
2022-10-09T23:33:43.943Z,97298.56
2022-10-09T23:36:13.169Z,97306.13
2022-10-09T23:38:39.856Z,97294.63
2022-10-09T23:41:10.547Z,97295.72
2022-10-09T23:43:38.479Z,97303.94
2022-10-09T23:46:07.109Z,97303.53
2022-10-09T23:48:34.226Z,97302.44
2022-10-09T23:51:00.890Z,97306.53
2022-10-09T23:53:28.195Z,97292.44
2022-10-09T23:55:55.043Z,97299.34
2022-10-09T23:58:22.473Z,97294.50
